createdAt,value
2023-02-28T00:00:06.579Z,98315.00
2023-02-28T00:00:16.586Z,98315.00
2023-02-28T00:00:26.599Z,98317.00
2023-02-28T00:00:36.607Z,98315.00
2023-02-28T00:00:46.608Z,98315.00
2023-02-28T00:00:56.618Z,98315.00
2023-02-28T00:01:06.657Z,98315.00
2023-02-28T00:01:16.640Z,98315.00
2023-02-28T00:01:27.001Z,98315.00
2023-02-28T00:01:36.737Z,98315.00
2023-02-28T00:01:46.849Z,98315.00
2023-02-28T00:01:56.875Z,98315.00
2023-02-28T00:02:06.966Z,98313.00
2023-02-28T00:02:17.017Z,98315.00
2023-02-28T00:02:27.080Z,98315.00
2023-02-28T00:02:37.078Z,98315.00
2023-02-28T00:02:47.353Z,98315.00
2023-02-28T00:02:57.456Z,98315.00
2023-02-28T00:03:07.516Z,98317.00
2023-02-28T00:03:17.809Z,98313.00
2023-02-28T00:03:27.906Z,98317.00
2023-02-28T00:03:37.985Z,98315.00
2023-02-28T00:03:48.257Z,98315.00
2023-02-28T00:03:58.260Z,98315.00
2023-02-28T00:04:08.268Z,98315.00
2023-02-28T00:04:18.266Z,98317.00
2023-02-28T00:04:28.275Z,98317.00
2023-02-28T00:04:38.280Z,98315.00
2023-02-28T00:04:48.411Z,98315.00
2023-02-28T00:04:58.424Z,98315.00
2023-02-28T00:05:08.420Z,98315.00
2023-02-28T00:05:18.425Z,98315.00
2023-02-28T00:05:28.754Z,98317.00
2023-02-28T00:05:38.736Z,98319.00
2023-02-28T00:05:48.746Z,98315.00
2023-02-28T00:05:58.773Z,98315.00
2023-02-28T00:06:08.792Z,98317.00
2023-02-28T00:06:18.786Z,98317.00
2023-02-28T00:06:28.808Z,98319.00
2023-02-28T00:06:38.827Z,98319.00
2023-02-28T00:06:48.813Z,98319.00
2023-02-28T00:06:58.821Z,98317.00
2023-02-28T00:07:08.827Z,98319.00
2023-02-28T00:07:18.840Z,98317.00
2023-02-28T00:07:28.849Z,98315.00
2023-02-28T00:07:38.864Z,98317.00
2023-02-28T00:07:48.871Z,98317.00
2023-02-28T00:07:58.888Z,98317.00
2023-02-28T00:08:08.931Z,98319.00
2023-02-28T00:08:18.953Z,98317.00
2023-02-28T00:08:28.951Z,98317.00
2023-02-28T00:08:39.075Z,98313.00
2023-02-28T00:08:49.096Z,98311.00
2023-02-28T00:08:59.112Z,98313.00
2023-02-28T00:09:09.137Z,98311.00
2023-02-28T00:09:19.141Z,98309.00
2023-02-28T00:09:29.397Z,98311.00
2023-02-28T00:09:39.400Z,98311.00
2023-02-28T00:09:49.403Z,98309.00
2023-02-28T00:09:59.801Z,98311.00
2023-02-28T00:10:09.805Z,98311.00
2023-02-28T00:10:19.814Z,98311.00
2023-02-28T00:10:29.834Z,98313.00
2023-02-28T00:10:39.833Z,98313.00
2023-02-28T00:10:49.857Z,98309.00
2023-02-28T00:10:59.856Z,98311.00
2023-02-28T00:11:09.886Z,98309.00
2023-02-28T00:11:19.892Z,98313.00
2023-02-28T00:11:30.312Z,98309.00
2023-02-28T00:11:39.899Z,98309.00
2023-02-28T00:11:49.918Z,98309.00
2023-02-28T00:11:59.921Z,98315.00
2023-02-28T00:12:09.925Z,98313.00
2023-02-28T00:12:19.941Z,98313.00
2023-02-28T00:12:29.945Z,98313.00
2023-02-28T00:12:39.988Z,98311.00
2023-02-28T00:12:49.988Z,98309.00
2023-02-28T00:13:00.004Z,98309.00
2023-02-28T00:13:10.006Z,98307.00
2023-02-28T00:13:20.023Z,98309.00
2023-02-28T00:13:30.025Z,98309.00
2023-02-28T00:13:40.033Z,98309.00
2023-02-28T00:13:50.054Z,98311.00
2023-02-28T00:14:00.414Z,98309.00
2023-02-28T00:14:10.424Z,98309.00
2023-02-28T00:14:20.434Z,98311.00
2023-02-28T00:14:30.432Z,98309.00
2023-02-28T00:14:40.448Z,98307.00
2023-02-28T00:14:50.448Z,98309.00
2023-02-28T00:15:00.473Z,98311.00
2023-02-28T00:15:10.477Z,98309.00
2023-02-28T00:15:20.484Z,98309.00
2023-02-28T00:15:30.496Z,98307.00
2023-02-28T00:15:40.504Z,98309.00
2023-02-28T00:15:50.510Z,98309.00
2023-02-28T00:16:00.525Z,98311.00
2023-02-28T00:16:10.715Z,98309.00
2023-02-28T00:16:20.814Z,98311.00
2023-02-28T00:16:30.870Z,98311.00
2023-02-28T00:16:40.907Z,98307.00
2023-02-28T00:16:51.139Z,98305.00
2023-02-28T00:17:01.199Z,98309.00
2023-02-28T00:17:11.207Z,98311.00
2023-02-28T00:17:21.212Z,98309.00
2023-02-28T00:17:31.232Z,98309.00
2023-02-28T00:17:41.237Z,98307.00
2023-02-28T00:17:51.261Z,98309.00
2023-02-28T00:18:01.254Z,98311.00
2023-02-28T00:18:11.252Z,98307.00
2023-02-28T00:18:21.284Z,98307.00
2023-02-28T00:18:31.670Z,98307.00
2023-02-28T00:18:41.419Z,98307.00
2023-02-28T00:18:51.434Z,98305.00
2023-02-28T00:19:01.461Z,98305.00
2023-02-28T00:19:11.714Z,98305.00
2023-02-28T00:19:21.717Z,98307.00
2023-02-28T00:19:31.732Z,98305.00
2023-02-28T00:19:41.738Z,98303.00
2023-02-28T00:19:51.749Z,98303.00
2023-02-28T00:20:01.754Z,98303.00
2023-02-28T00:20:11.766Z,98305.00
2023-02-28T00:20:21.783Z,98305.00
2023-02-28T00:20:31.806Z,98307.00
2023-02-28T00:20:41.787Z,98307.00
2023-02-28T00:20:51.819Z,98307.00
2023-02-28T00:21:01.849Z,98305.00
2023-02-28T00:21:11.881Z,98307.00
2023-02-28T00:21:21.926Z,98305.00
2023-02-28T00:21:32.272Z,98309.00
2023-02-28T00:21:41.947Z,98305.00
2023-02-28T00:21:51.976Z,98309.00
2023-02-28T00:22:01.975Z,98307.00
2023-02-28T00:22:12.007Z,98309.00
2023-02-28T00:22:22.035Z,98309.00
2023-02-28T00:22:32.051Z,98307.00
2023-02-28T00:22:42.064Z,98305.00
2023-02-28T00:22:52.084Z,98309.00
2023-02-28T00:23:02.097Z,98309.00
2023-02-28T00:23:12.096Z,98305.00
2023-02-28T00:23:22.100Z,98305.00
2023-02-28T00:23:32.105Z,98307.00
2023-02-28T00:23:42.146Z,98309.00
2023-02-28T00:23:52.174Z,98307.00
2023-02-28T00:24:02.179Z,98305.00
2023-02-28T00:24:12.185Z,98309.00
2023-02-28T00:24:22.572Z,98307.00
2023-02-28T00:24:32.573Z,98309.00
2023-02-28T00:24:42.595Z,98309.00
2023-02-28T00:24:52.594Z,98309.00
2023-02-28T00:25:02.631Z,98309.00
2023-02-28T00:25:12.624Z,98309.00
2023-02-28T00:25:22.656Z,98309.00
2023-02-28T00:25:32.653Z,98311.00
2023-02-28T00:25:42.779Z,98311.00
2023-02-28T00:25:52.789Z,98311.00
2023-02-28T00:26:03.057Z,98311.00
2023-02-28T00:26:13.070Z,98307.00
2023-02-28T00:26:23.076Z,98307.00
2023-02-28T00:26:33.081Z,98307.00
2023-02-28T00:26:43.103Z,98307.00
2023-02-28T00:26:53.102Z,98309.00
2023-02-28T00:27:03.115Z,98307.00
2023-02-28T00:27:13.122Z,98307.00
2023-02-28T00:27:23.137Z,98307.00
2023-02-28T00:27:33.142Z,98307.00
2023-02-28T00:27:43.156Z,98307.00
2023-02-28T00:27:53.158Z,98305.00
2023-02-28T00:28:03.169Z,98307.00
2023-02-28T00:28:13.188Z,98305.00
2023-02-28T00:28:23.197Z,98309.00
2023-02-28T00:28:33.200Z,98307.00
2023-02-28T00:28:43.219Z,98307.00
2023-02-28T00:28:53.223Z,98307.00
2023-02-28T00:29:03.236Z,98307.00
2023-02-28T00:29:13.241Z,98307.00
2023-02-28T00:29:23.368Z,98307.00
2023-02-28T00:29:33.415Z,98307.00
2023-02-28T00:29:43.420Z,98307.00
2023-02-28T00:29:53.420Z,98309.00
2023-02-28T00:30:03.716Z,98309.00
2023-02-28T00:30:13.717Z,98305.00
2023-02-28T00:30:23.734Z,98309.00
2023-02-28T00:30:33.753Z,98307.00
2023-02-28T00:30:43.806Z,98309.00
2023-02-28T00:30:53.890Z,98307.00
2023-02-28T00:31:03.950Z,98307.00
2023-02-28T00:31:14.014Z,98307.00
2023-02-28T00:31:24.082Z,98307.00
2023-02-28T00:31:34.096Z,98305.00
2023-02-28T00:31:44.103Z,98307.00
2023-02-28T00:31:54.131Z,98307.00
2023-02-28T00:32:04.212Z,98309.00
2023-02-28T00:32:14.347Z,98309.00
2023-02-28T00:32:24.353Z,98307.00
2023-02-28T00:32:34.350Z,98311.00
2023-02-28T00:32:44.359Z,98307.00
2023-02-28T00:32:54.629Z,98307.00
2023-02-28T00:33:04.643Z,98307.00
2023-02-28T00:33:14.665Z,98307.00
2023-02-28T00:33:24.657Z,98307.00
2023-02-28T00:33:34.667Z,98307.00
2023-02-28T00:33:44.669Z,98307.00
2023-02-28T00:33:54.671Z,98305.00
2023-02-28T00:34:04.796Z,98307.00
2023-02-28T00:34:14.805Z,98307.00
2023-02-28T00:34:24.839Z,98307.00
2023-02-28T00:34:35.074Z,98307.00
2023-02-28T00:34:45.084Z,98305.00
2023-02-28T00:34:55.090Z,98305.00
2023-02-28T00:35:05.095Z,98307.00
2023-02-28T00:35:15.113Z,98305.00
2023-02-28T00:35:25.219Z,98305.00
2023-02-28T00:35:35.185Z,98305.00
2023-02-28T00:35:45.280Z,98305.00
2023-02-28T00:35:55.265Z,98305.00
2023-02-28T00:36:05.280Z,98305.00
2023-02-28T00:36:15.274Z,98305.00
2023-02-28T00:36:25.287Z,98303.00
2023-02-28T00:36:35.287Z,98305.00
2023-02-28T00:36:45.294Z,98305.00
2023-02-28T00:36:55.295Z,98307.00
2023-02-28T00:37:05.301Z,98305.00
2023-02-28T00:37:15.313Z,98307.00
2023-02-28T00:37:25.663Z,98309.00
2023-02-28T00:37:35.411Z,98309.00
2023-02-28T00:37:45.416Z,98309.00
2023-02-28T00:37:55.415Z,98305.00
2023-02-28T00:38:05.687Z,98303.00
2023-02-28T00:38:15.699Z,98305.00
2023-02-28T00:38:25.704Z,98307.00
2023-02-28T00:38:35.692Z,98303.00
2023-02-28T00:38:45.716Z,98303.00
2023-02-28T00:38:55.820Z,98305.00
2023-02-28T00:39:05.722Z,98305.00
2023-02-28T00:39:15.730Z,98305.00
2023-02-28T00:39:25.747Z,98303.00
2023-02-28T00:39:35.750Z,98303.00
2023-02-28T00:39:45.759Z,98303.00
2023-02-28T00:39:55.770Z,98303.00
2023-02-28T00:40:05.785Z,98307.00
2023-02-28T00:40:15.817Z,98305.00
2023-02-28T00:40:25.840Z,98305.00
2023-02-28T00:40:35.864Z,98305.00
2023-02-28T00:40:45.867Z,98303.00
2023-02-28T00:40:55.863Z,98305.00
2023-02-28T00:41:06.182Z,98305.00
2023-02-28T00:41:15.952Z,98305.00
2023-02-28T00:41:25.995Z,98305.00
2023-02-28T00:41:35.997Z,98305.00
2023-02-28T00:41:46.117Z,98303.00
2023-02-28T00:41:56.121Z,98305.00
2023-02-28T00:42:06.399Z,98305.00
2023-02-28T00:42:16.416Z,98303.00
2023-02-28T00:42:26.427Z,98301.00
2023-02-28T00:42:36.429Z,98303.00
2023-02-28T00:42:46.563Z,98305.00
2023-02-28T00:42:56.565Z,98305.00
2023-02-28T00:43:06.565Z,98303.00
2023-02-28T00:43:16.570Z,98303.00
2023-02-28T00:43:26.600Z,98303.00
2023-02-28T00:43:36.597Z,98303.00
2023-02-28T00:43:46.853Z,98301.00
2023-02-28T00:43:56.860Z,98301.00
2023-02-28T00:44:06.985Z,98301.00
2023-02-28T00:44:17.255Z,98301.00
2023-02-28T00:44:27.250Z,98305.00
2023-02-28T00:44:37.260Z,98305.00
2023-02-28T00:44:47.265Z,98303.00
2023-02-28T00:44:57.273Z,98303.00
2023-02-28T00:45:07.278Z,98303.00
2023-02-28T00:45:17.293Z,98303.00
2023-02-28T00:45:27.314Z,98303.00
2023-02-28T00:45:37.307Z,98301.00
2023-02-28T00:45:47.485Z,98303.00
2023-02-28T00:45:57.880Z,98301.00
2023-02-28T00:46:07.922Z,98301.00
2023-02-28T00:46:17.970Z,98299.00
2023-02-28T00:46:28.351Z,98299.00
2023-02-28T00:46:38.267Z,98299.00
2023-02-28T00:46:48.284Z,98301.00
2023-02-28T00:46:58.286Z,98299.00
2023-02-28T00:47:08.345Z,98299.00
2023-02-28T00:47:18.341Z,98299.00
2023-02-28T00:47:28.420Z,98301.00
2023-02-28T00:47:38.456Z,98301.00
2023-02-28T00:47:48.540Z,98303.00
2023-02-28T00:47:58.549Z,98299.00
2023-02-28T00:48:08.863Z,98299.00
2023-02-28T00:48:18.887Z,98296.00
2023-02-28T00:48:28.877Z,98301.00
2023-02-28T00:48:38.897Z,98299.00
2023-02-28T00:48:48.896Z,98299.00
2023-02-28T00:48:58.906Z,98299.00
2023-02-28T00:49:08.923Z,98301.00
2023-02-28T00:49:18.963Z,98299.00
2023-02-28T00:49:28.963Z,98299.00
2023-02-28T00:49:38.961Z,98298.00
2023-02-28T00:49:49.004Z,98298.00
2023-02-28T00:49:59.005Z,98299.00
2023-02-28T00:50:09.006Z,98298.00
2023-02-28T00:50:19.009Z,98301.00
2023-02-28T00:50:29.017Z,98301.00
2023-02-28T00:50:39.052Z,98299.00
2023-02-28T00:50:49.037Z,98299.00
2023-02-28T00:50:59.429Z,98301.00
2023-02-28T00:51:09.438Z,98301.00
2023-02-28T00:51:19.442Z,98301.00
2023-02-28T00:51:29.776Z,98301.00
2023-02-28T00:51:39.616Z,98303.00
2023-02-28T00:51:49.615Z,98303.00
2023-02-28T00:51:59.619Z,98301.00
2023-02-28T00:52:09.621Z,98305.00
2023-02-28T00:52:19.650Z,98303.00
2023-02-28T00:52:29.652Z,98303.00
2023-02-28T00:52:39.666Z,98301.00
2023-02-28T00:52:49.692Z,98303.00
2023-02-28T00:52:59.694Z,98301.00
2023-02-28T00:53:09.701Z,98301.00
2023-02-28T00:53:19.704Z,98301.00
2023-02-28T00:53:29.744Z,98301.00
2023-02-28T00:53:39.747Z,98301.00
2023-02-28T00:53:49.755Z,98301.00
2023-02-28T00:53:59.755Z,98303.00
2023-02-28T00:54:09.766Z,98303.00
2023-02-28T00:54:19.775Z,98303.00
2023-02-28T00:54:29.780Z,98305.00
2023-02-28T00:54:39.782Z,98303.00
2023-02-28T00:54:49.778Z,98303.00
2023-02-28T00:54:59.786Z,98301.00
2023-02-28T00:55:09.795Z,98303.00
2023-02-28T00:55:19.918Z,98301.00
2023-02-28T00:55:29.926Z,98305.00
2023-02-28T00:55:40.207Z,98301.00
2023-02-28T00:55:50.212Z,98303.00
2023-02-28T00:56:01.171Z,98303.00
2023-02-28T00:56:10.266Z,98303.00
2023-02-28T00:56:20.282Z,98301.00
2023-02-28T00:56:30.284Z,98299.00
2023-02-28T00:56:40.292Z,98301.00
2023-02-28T00:56:50.299Z,98303.00
2023-02-28T00:57:00.327Z,98303.00
2023-02-28T00:57:10.322Z,98299.00
2023-02-28T00:57:20.319Z,98305.00
2023-02-28T00:57:30.343Z,98303.00
2023-02-28T00:57:40.340Z,98303.00
2023-02-28T00:57:50.340Z,98301.00
2023-02-28T00:58:00.360Z,98303.00
2023-02-28T00:58:10.361Z,98301.00
2023-02-28T00:58:20.363Z,98303.00
2023-02-28T00:58:30.390Z,98301.00
2023-02-28T00:58:40.398Z,98301.00
2023-02-28T00:58:50.392Z,98301.00
2023-02-28T00:59:00.401Z,98301.00
2023-02-28T00:59:10.410Z,98303.00
2023-02-28T00:59:20.423Z,98301.00
2023-02-28T00:59:30.430Z,98301.00
2023-02-28T00:59:40.443Z,98301.00
2023-02-28T00:59:50.474Z,98301.00
2023-02-28T01:00:00.462Z,98301.00
2023-02-28T01:00:10.468Z,98301.00
2023-02-28T01:00:20.484Z,98301.00
2023-02-28T01:00:30.495Z,98299.00
2023-02-28T01:00:40.499Z,98301.00
2023-02-28T01:00:50.615Z,98301.00
2023-02-28T01:01:00.498Z,98303.00
2023-02-28T01:01:10.634Z,98301.00
2023-02-28T01:01:20.567Z,98303.00
2023-02-28T01:01:31.199Z,98301.00
2023-02-28T01:01:40.807Z,98303.00
2023-02-28T01:01:50.850Z,98303.00
2023-02-28T01:02:00.886Z,98303.00
2023-02-28T01:02:10.889Z,98303.00
2023-02-28T01:02:20.901Z,98303.00
2023-02-28T01:02:30.910Z,98301.00
2023-02-28T01:02:40.916Z,98301.00
2023-02-28T01:02:50.934Z,98301.00
2023-02-28T01:03:00.941Z,98301.00
2023-02-28T01:03:10.947Z,98303.00
2023-02-28T01:03:20.960Z,98303.00
2023-02-28T01:03:30.977Z,98303.00
2023-02-28T01:03:40.980Z,98303.00
2023-02-28T01:03:50.987Z,98303.00
2023-02-28T01:04:01.123Z,98303.00
2023-02-28T01:04:11.176Z,98301.00
2023-02-28T01:04:21.538Z,98303.00
2023-02-28T01:04:31.599Z,98303.00
2023-02-28T01:04:41.691Z,98303.00
2023-02-28T01:04:51.707Z,98301.00
2023-02-28T01:05:01.691Z,98303.00
2023-02-28T01:05:11.793Z,98301.00
2023-02-28T01:05:21.795Z,98303.00
2023-02-28T01:05:31.816Z,98303.00
2023-02-28T01:05:41.833Z,98301.00
2023-02-28T01:05:51.830Z,98305.00
2023-02-28T01:06:02.083Z,98301.00
2023-02-28T01:06:12.108Z,98301.00
2023-02-28T01:06:22.113Z,98301.00
2023-02-28T01:06:32.108Z,98303.00
2023-02-28T01:06:42.127Z,98301.00
2023-02-28T01:06:52.137Z,98299.00
2023-02-28T01:07:02.163Z,98301.00
2023-02-28T01:07:12.152Z,98301.00
2023-02-28T01:07:22.163Z,98303.00
2023-02-28T01:07:32.162Z,98301.00
2023-02-28T01:07:42.539Z,98301.00
2023-02-28T01:07:52.541Z,98299.00
2023-02-28T01:08:02.677Z,98301.00
2023-02-28T01:08:12.947Z,98299.00
2023-02-28T01:08:22.956Z,98301.00
2023-02-28T01:08:32.969Z,98301.00
2023-02-28T01:08:42.982Z,98303.00
2023-02-28T01:08:52.996Z,98301.00
2023-02-28T01:09:03.001Z,98303.00
2023-02-28T01:09:13.013Z,98301.00
2023-02-28T01:09:23.013Z,98303.00
2023-02-28T01:09:33.026Z,98303.00
2023-02-28T01:09:43.034Z,98303.00
2023-02-28T01:09:53.055Z,98303.00
2023-02-28T01:10:03.090Z,98303.00
2023-02-28T01:10:13.110Z,98301.00
2023-02-28T01:10:23.123Z,98301.00
2023-02-28T01:10:33.138Z,98301.00
2023-02-28T01:10:43.139Z,98301.00
2023-02-28T01:10:53.179Z,98301.00
2023-02-28T01:11:03.167Z,98301.00
2023-02-28T01:11:13.181Z,98305.00
2023-02-28T01:11:23.184Z,98303.00
2023-02-28T01:11:33.193Z,98303.00
2023-02-28T01:11:43.250Z,98299.00
2023-02-28T01:11:53.241Z,98299.00
2023-02-28T01:12:03.248Z,98301.00
2023-02-28T01:12:13.255Z,98301.00
2023-02-28T01:12:23.266Z,98301.00
2023-02-28T01:12:33.272Z,98299.00
2023-02-28T01:12:43.309Z,98299.00
2023-02-28T01:12:53.305Z,98299.00
2023-02-28T01:13:03.309Z,98301.00
2023-02-28T01:13:13.314Z,98299.00
2023-02-28T01:13:23.334Z,98299.00
2023-02-28T01:13:33.346Z,98301.00
2023-02-28T01:13:43.473Z,98301.00
2023-02-28T01:13:53.485Z,98299.00
2023-02-28T01:14:03.496Z,98301.00
2023-02-28T01:14:13.505Z,98301.00
2023-02-28T01:14:23.537Z,98301.00
2023-02-28T01:14:33.794Z,98299.00
2023-02-28T01:14:43.799Z,98299.00
2023-02-28T01:14:53.810Z,98301.00
2023-02-28T01:15:03.814Z,98298.00
2023-02-28T01:15:13.832Z,98299.00
2023-02-28T01:15:23.859Z,98301.00
2023-02-28T01:15:33.911Z,98298.00
2023-02-28T01:15:43.990Z,98301.00
2023-02-28T01:15:54.095Z,98299.00
2023-02-28T01:16:04.170Z,98301.00
2023-02-28T01:16:14.441Z,98301.00
2023-02-28T01:16:24.461Z,98299.00
2023-02-28T01:16:34.487Z,98301.00
2023-02-28T01:16:44.482Z,98301.00
2023-02-28T01:16:54.487Z,98299.00
2023-02-28T01:17:04.505Z,98301.00
2023-02-28T01:17:14.501Z,98298.00
2023-02-28T01:17:24.516Z,98299.00
2023-02-28T01:17:34.543Z,98299.00
2023-02-28T01:17:44.553Z,98299.00
2023-02-28T01:17:54.540Z,98299.00
2023-02-28T01:18:04.685Z,98299.00
2023-02-28T01:18:14.688Z,98299.00
2023-02-28T01:18:24.678Z,98299.00
2023-02-28T01:18:34.683Z,98299.00
2023-02-28T01:18:44.804Z,98299.00
2023-02-28T01:18:54.808Z,98299.00
2023-02-28T01:19:04.945Z,98299.00
2023-02-28T01:19:14.942Z,98299.00
2023-02-28T01:19:25.067Z,98301.00
2023-02-28T01:19:35.345Z,98299.00
2023-02-28T01:19:45.356Z,98298.00
2023-02-28T01:19:55.398Z,98298.00
2023-02-28T01:20:05.374Z,98298.00
2023-02-28T01:20:15.387Z,98299.00
2023-02-28T01:20:25.421Z,98298.00
2023-02-28T01:20:35.424Z,98298.00
2023-02-28T01:20:45.460Z,98298.00
2023-02-28T01:20:55.481Z,98299.00
2023-02-28T01:21:05.474Z,98298.00
2023-02-28T01:21:15.504Z,98298.00
2023-02-28T01:21:25.502Z,98301.00
2023-02-28T01:21:35.506Z,98298.00
2023-02-28T01:21:45.515Z,98296.00
2023-02-28T01:21:55.537Z,98298.00
2023-02-28T01:22:05.545Z,98296.00
2023-02-28T01:22:15.557Z,98296.00
2023-02-28T01:22:25.550Z,98296.00
2023-02-28T01:22:35.588Z,98294.00
2023-02-28T01:22:45.598Z,98296.00
2023-02-28T01:22:55.592Z,98298.00
2023-02-28T01:23:05.601Z,98298.00
2023-02-28T01:23:15.609Z,98296.00
2023-02-28T01:23:25.620Z,98294.00
2023-02-28T01:23:35.625Z,98296.00
2023-02-28T01:23:45.646Z,98296.00
2023-02-28T01:23:55.662Z,98298.00
2023-02-28T01:24:05.655Z,98296.00
2023-02-28T01:24:15.702Z,98298.00
2023-02-28T01:24:25.720Z,98296.00
2023-02-28T01:24:35.722Z,98298.00
2023-02-28T01:24:48.014Z,98294.00
2023-02-28T01:24:55.795Z,98298.00
2023-02-28T01:25:05.821Z,98294.00
2023-02-28T01:25:15.865Z,98294.00
2023-02-28T01:25:25.937Z,98294.00
2023-02-28T01:25:35.990Z,98296.00
2023-02-28T01:25:46.078Z,98296.00
2023-02-28T01:25:56.057Z,98294.00
2023-02-28T01:26:06.077Z,98298.00
2023-02-28T01:26:16.077Z,98294.00
2023-02-28T01:26:26.176Z,98296.00
2023-02-28T01:26:36.184Z,98296.00
2023-02-28T01:26:46.310Z,98294.00
2023-02-28T01:26:56.343Z,98296.00
2023-02-28T01:27:06.380Z,98296.00
2023-02-28T01:27:16.381Z,98296.00
2023-02-28T01:27:26.399Z,98296.00
2023-02-28T01:27:36.657Z,98296.00
2023-02-28T01:27:46.780Z,98296.00
2023-02-28T01:27:56.780Z,98296.00
2023-02-28T01:28:07.064Z,98294.00
2023-02-28T01:28:17.062Z,98298.00
2023-02-28T01:28:27.076Z,98298.00
2023-02-28T01:28:37.094Z,98296.00
2023-02-28T01:28:47.092Z,98294.00
2023-02-28T01:28:57.104Z,98298.00
2023-02-28T01:29:07.157Z,98296.00
2023-02-28T01:29:17.160Z,98298.00
2023-02-28T01:29:27.189Z,98298.00
2023-02-28T01:29:37.194Z,98296.00
2023-02-28T01:29:47.177Z,98296.00
2023-02-28T01:29:57.180Z,98294.00
2023-02-28T01:30:07.334Z,98298.00
2023-02-28T01:30:17.316Z,98298.00
2023-02-28T01:30:27.447Z,98296.00
2023-02-28T01:30:37.457Z,98296.00
2023-02-28T01:30:47.489Z,98299.00
2023-02-28T01:30:57.679Z,98299.00
2023-02-28T01:31:07.742Z,98298.00
2023-02-28T01:31:17.798Z,98298.00
2023-02-28T01:31:28.477Z,98296.00
2023-02-28T01:31:37.850Z,98298.00
2023-02-28T01:31:47.881Z,98296.00
2023-02-28T01:31:57.907Z,98298.00
2023-02-28T01:32:08.053Z,98298.00
2023-02-28T01:32:18.115Z,98298.00
2023-02-28T01:32:28.127Z,98298.00
2023-02-28T01:32:38.268Z,98296.00
2023-02-28T01:32:48.407Z,98298.00
2023-02-28T01:32:58.419Z,98298.00
2023-02-28T01:33:08.431Z,98296.00
2023-02-28T01:33:18.449Z,98296.00
2023-02-28T01:33:28.448Z,98299.00
2023-02-28T01:33:38.570Z,98296.00
2023-02-28T01:33:48.583Z,98298.00
2023-02-28T01:33:58.598Z,98294.00
2023-02-28T01:34:08.636Z,98296.00
2023-02-28T01:34:18.644Z,98298.00
2023-02-28T01:34:28.907Z,98296.00
2023-02-28T01:34:38.933Z,98298.00
2023-02-28T01:34:48.927Z,98298.00
2023-02-28T01:34:58.945Z,98298.00
2023-02-28T01:35:08.948Z,98298.00
2023-02-28T01:35:18.954Z,98296.00
2023-02-28T01:35:28.967Z,98298.00
2023-02-28T01:35:39.070Z,98298.00
2023-02-28T01:35:49.133Z,98298.00
2023-02-28T01:35:59.211Z,98299.00
2023-02-28T01:36:09.307Z,98298.00
2023-02-28T01:36:19.324Z,98299.00
2023-02-28T01:36:29.367Z,98298.00
2023-02-28T01:36:39.365Z,98298.00
2023-02-28T01:36:49.367Z,98298.00
2023-02-28T01:36:59.490Z,98301.00
2023-02-28T01:37:09.501Z,98301.00
2023-02-28T01:37:19.775Z,98299.00
2023-02-28T01:37:29.781Z,98301.00
2023-02-28T01:37:39.816Z,98301.00
2023-02-28T01:37:49.867Z,98299.00
2023-02-28T01:38:09.493Z,98299.00
2023-02-28T01:38:21.373Z,98298.00
2023-02-28T01:38:22.887Z,98298.00
2023-02-28T01:38:29.896Z,98299.00
2023-02-28T01:38:39.899Z,98296.00
2023-02-28T01:38:49.897Z,98298.00
2023-02-28T01:39:00.157Z,98298.00
2023-02-28T01:39:10.204Z,98298.00
2023-02-28T01:39:20.196Z,98298.00
2023-02-28T01:39:30.203Z,98299.00
2023-02-28T01:39:40.212Z,98298.00
2023-02-28T01:39:50.237Z,98299.00
2023-02-28T01:40:00.246Z,98298.00
2023-02-28T01:40:10.277Z,98296.00
2023-02-28T01:40:20.297Z,98298.00
2023-02-28T01:40:30.305Z,98296.00
2023-02-28T01:40:40.300Z,98298.00
2023-02-28T01:40:50.327Z,98298.00
2023-02-28T01:41:00.318Z,98298.00
2023-02-28T01:41:10.321Z,98296.00
2023-02-28T01:41:20.355Z,98296.00
2023-02-28T01:41:30.757Z,98296.00
2023-02-28T01:41:40.366Z,98303.00
2023-02-28T01:41:50.364Z,98296.00
2023-02-28T01:42:00.506Z,98299.00
2023-02-28T01:42:10.483Z,98299.00
2023-02-28T01:42:20.613Z,98301.00
2023-02-28T01:42:30.625Z,98298.00
2023-02-28T01:42:40.627Z,98299.00
2023-02-28T01:42:50.627Z,98296.00
2023-02-28T01:43:00.754Z,98298.00
2023-02-28T01:43:10.751Z,98299.00
2023-02-28T01:43:20.874Z,98296.00
2023-02-28T01:43:31.140Z,98296.00
2023-02-28T01:43:41.153Z,98296.00
2023-02-28T01:43:51.199Z,98294.00
2023-02-28T01:44:01.193Z,98294.00
2023-02-28T01:44:11.202Z,98294.00
2023-02-28T01:44:21.207Z,98296.00
2023-02-28T01:44:31.210Z,98294.00
2023-02-28T01:44:41.229Z,98294.00
2023-02-28T01:44:51.231Z,98290.00
2023-02-28T01:45:01.237Z,98292.00
2023-02-28T01:45:11.234Z,98290.00
2023-02-28T01:45:21.383Z,98290.00
2023-02-28T01:45:31.389Z,98288.00
2023-02-28T01:45:41.392Z,98292.00
2023-02-28T01:45:51.408Z,98290.00
2023-02-28T01:46:01.466Z,98290.00
2023-02-28T01:46:11.595Z,98290.00
2023-02-28T01:46:21.730Z,98290.00
2023-02-28T01:46:31.789Z,98288.00
2023-02-28T01:46:41.859Z,98288.00
2023-02-28T01:46:51.873Z,98288.00
2023-02-28T01:47:01.882Z,98290.00
2023-02-28T01:47:11.887Z,98290.00
2023-02-28T01:47:21.888Z,98290.00
2023-02-28T01:47:31.898Z,98290.00
2023-02-28T01:47:42.031Z,98290.00
2023-02-28T01:47:52.047Z,98290.00
2023-02-28T01:48:02.313Z,98290.00
2023-02-28T01:48:12.314Z,98290.00
2023-02-28T01:48:22.326Z,98288.00
2023-02-28T01:48:32.362Z,98286.00
2023-02-28T01:48:42.357Z,98288.00
2023-02-28T01:48:52.362Z,98288.00
2023-02-28T01:49:02.376Z,98290.00
2023-02-28T01:49:12.371Z,98290.00
2023-02-28T01:49:22.389Z,98286.00
2023-02-28T01:49:32.402Z,98286.00
2023-02-28T01:49:42.409Z,98286.00
2023-02-28T01:49:52.419Z,98286.00
2023-02-28T01:50:02.427Z,98284.00
2023-02-28T01:50:12.439Z,98284.00
2023-02-28T01:50:22.446Z,98284.00
2023-02-28T01:50:32.453Z,98286.00
2023-02-28T01:50:42.480Z,98282.00
2023-02-28T01:50:52.504Z,98280.00
2023-02-28T01:51:02.486Z,98284.00
2023-02-28T01:51:12.533Z,98284.00
2023-02-28T01:51:22.522Z,98284.00
2023-02-28T01:51:32.570Z,98284.00
2023-02-28T01:51:42.585Z,98284.00
2023-02-28T01:51:52.595Z,98282.00
2023-02-28T01:52:02.606Z,98284.00
2023-02-28T01:52:12.624Z,98282.00
2023-02-28T01:52:22.636Z,98282.00
2023-02-28T01:52:32.640Z,98282.00
2023-02-28T01:52:42.654Z,98284.00
2023-02-28T01:52:52.717Z,98280.00
2023-02-28T01:53:02.702Z,98282.00
2023-02-28T01:53:12.711Z,98282.00
2023-02-28T01:53:22.727Z,98284.00
2023-02-28T01:53:32.740Z,98286.00
2023-02-28T01:53:42.741Z,98284.00
2023-02-28T01:53:52.745Z,98282.00
2023-02-28T01:54:02.759Z,98286.00
2023-02-28T01:54:12.774Z,98284.00
2023-02-28T01:54:22.781Z,98284.00
2023-02-28T01:54:32.788Z,98276.00
2023-02-28T01:54:42.800Z,98278.00
2023-02-28T01:54:52.816Z,98278.00
2023-02-28T01:55:02.829Z,98278.00
2023-02-28T01:55:12.828Z,98276.00
2023-02-28T01:55:22.967Z,98278.00
2023-02-28T01:55:33.235Z,98282.00
2023-02-28T01:55:43.243Z,98284.00
2023-02-28T01:55:53.252Z,98282.00
2023-02-28T01:56:03.263Z,98284.00
2023-02-28T01:56:13.273Z,98284.00
2023-02-28T01:56:23.281Z,98286.00
2023-02-28T01:56:33.277Z,98282.00
2023-02-28T01:56:43.289Z,98282.00
2023-02-28T01:56:53.286Z,98280.00
2023-02-28T01:57:03.306Z,98282.00
2023-02-28T01:57:13.317Z,98284.00
2023-02-28T01:57:23.339Z,98280.00
2023-02-28T01:57:33.328Z,98280.00
2023-02-28T01:57:43.364Z,98280.00
2023-02-28T01:57:53.373Z,98280.00